createdAt,value
2023-03-23T00:03:09.698Z,4.70
2023-03-23T00:07:09.079Z,4.00
2023-03-23T00:11:09.356Z,2.30
2023-03-23T00:15:12.843Z,2.70
2023-03-23T00:19:13.095Z,2.70
2023-03-23T00:23:09.117Z,2.60
2023-03-23T00:27:12.476Z,2.50
2023-03-23T00:31:09.771Z,2.40
2023-03-23T00:35:09.411Z,2.50
2023-03-23T00:39:09.125Z,2.60
2023-03-23T00:43:13.926Z,2.90
2023-03-23T00:47:10.176Z,3.10
2023-03-23T00:51:11.770Z,3.30
2023-03-23T00:55:09.419Z,3.30
2023-03-23T01:03:12.107Z,3.10
2023-03-23T01:07:12.475Z,2.60
2023-03-23T01:11:09.641Z,2.90
2023-03-23T01:15:10.007Z,2.40
2023-03-23T01:19:09.651Z,2.60
2023-03-23T01:23:09.714Z,2.90
2023-03-23T01:27:09.366Z,2.80
2023-03-23T01:31:14.209Z,3.20
2023-03-23T01:35:09.867Z,3.20
2023-03-23T01:39:09.624Z,2.40
2023-03-23T01:43:14.101Z,3.00
2023-03-23T01:47:09.392Z,3.30
2023-03-23T01:51:15.283Z,3.10
2023-03-23T01:55:09.544Z,3.10
2023-03-23T01:59:10.744Z,3.30
2023-03-23T02:03:13.470Z,3.10
2023-03-23T02:07:12.805Z,3.10
2023-03-23T02:11:21.853Z,3.30
2023-03-23T02:15:10.773Z,3.20
2023-03-23T02:19:26.420Z,3.90
2023-03-23T02:27:16.797Z,3.60
2023-03-23T02:31:20.983Z,3.20
2023-03-23T02:35:15.441Z,4.00
2023-03-23T02:39:14.249Z,4.00
2023-03-23T02:43:14.514Z,3.90
2023-03-23T02:47:15.528Z,3.70
2023-03-23T02:51:11.985Z,4.10
2023-03-23T02:55:11.430Z,4.40
2023-03-23T02:59:09.771Z,4.20
2023-03-23T03:03:14.918Z,4.20
2023-03-23T03:07:29.336Z,4.60
2023-03-23T03:11:12.544Z,4.10
2023-03-23T03:23:12.769Z,4.90
2023-03-23T03:31:09.851Z,5.00
2023-03-23T03:39:10.227Z,5.60
2023-03-23T03:43:09.739Z,5.00
2023-03-23T03:47:09.759Z,5.10
2023-03-23T03:51:09.701Z,5.60
2023-03-23T03:55:10.728Z,5.20
2023-03-23T03:59:21.416Z,5.00
2023-03-23T04:03:09.881Z,5.20
2023-03-23T04:07:10.966Z,5.10
2023-03-23T04:11:12.188Z,5.50
2023-03-23T04:19:13.017Z,5.20
2023-03-23T04:23:09.812Z,5.10
2023-03-23T04:27:12.909Z,4.80
2023-03-23T04:31:12.686Z,5.10
2023-03-23T04:35:14.172Z,4.70
2023-03-23T04:39:10.344Z,4.80
2023-03-23T04:43:12.561Z,5.00
2023-03-23T04:47:09.787Z,5.00
2023-03-23T04:51:09.956Z,5.00
2023-03-23T04:55:09.941Z,5.90
2023-03-23T04:59:10.770Z,5.20
2023-03-23T05:03:10.136Z,5.60
2023-03-23T05:07:11.363Z,5.70
2023-03-23T05:11:09.936Z,5.00
2023-03-23T05:15:11.484Z,4.60
2023-03-23T05:19:09.967Z,5.20
2023-03-23T05:23:11.026Z,5.50
2023-03-23T05:27:11.001Z,4.80
2023-03-23T05:31:09.983Z,4.90
2023-03-23T05:35:09.922Z,5.60
2023-03-23T05:39:11.310Z,5.20
2023-03-23T05:47:10.086Z,5.40
2023-03-23T05:51:09.985Z,5.30
2023-03-23T05:55:11.450Z,4.50
2023-03-23T05:59:10.817Z,6.00
2023-03-23T06:03:10.111Z,4.70
2023-03-23T06:11:10.502Z,5.70
2023-03-23T06:15:11.091Z,5.60
2023-03-23T06:19:11.097Z,6.20
2023-03-23T06:23:10.254Z,5.10
2023-03-23T06:27:11.396Z,4.90
2023-03-23T06:31:11.194Z,4.70
2023-03-23T06:35:11.468Z,5.00
2023-03-23T06:39:11.035Z,6.00
2023-03-23T06:43:10.304Z,5.40
2023-03-23T06:47:10.162Z,5.30
2023-03-23T06:51:10.170Z,5.50
2023-03-23T06:55:10.222Z,5.70
2023-03-23T06:59:10.338Z,6.50
2023-03-23T07:03:10.322Z,5.80
2023-03-23T07:07:14.243Z,5.40
2023-03-23T07:11:12.387Z,7.10
2023-03-23T07:15:10.999Z,5.70
2023-03-23T07:19:10.387Z,6.20
2023-03-23T07:23:10.740Z,5.70
2023-03-23T07:27:10.516Z,6.20
2023-03-23T07:31:10.575Z,6.30
2023-03-23T07:35:10.969Z,6.10
2023-03-23T07:39:10.382Z,6.30
2023-03-23T07:43:10.605Z,5.70
2023-03-23T07:47:10.502Z,5.90
2023-03-23T07:51:10.409Z,5.60
2023-03-23T07:55:17.344Z,5.90
2023-03-23T07:59:11.236Z,7.20
2023-03-23T08:03:10.514Z,6.50
2023-03-23T08:07:12.421Z,7.20
2023-03-23T08:11:10.956Z,6.00
2023-03-23T08:15:12.934Z,6.00
2023-03-23T08:19:10.706Z,5.80
2023-03-23T08:23:10.789Z,6.00
2023-03-23T08:27:10.697Z,5.70
2023-03-23T08:31:12.833Z,6.20
2023-03-23T08:35:12.783Z,6.00
2023-03-23T08:39:11.000Z,5.70
2023-03-23T08:43:10.947Z,5.80
2023-03-23T08:47:10.800Z,6.30
2023-03-23T08:51:11.012Z,5.30
2023-03-23T08:55:12.482Z,5.10
2023-03-23T08:59:12.248Z,5.10
2023-03-23T09:03:11.251Z,5.50
2023-03-23T09:06:13.454Z,5.50
2023-03-23T09:07:12.294Z,4.80
2023-03-23T09:11:11.926Z,4.70
2023-03-23T09:19:12.501Z,9.20
2023-03-23T09:23:13.053Z,5.00
2023-03-23T09:27:10.730Z,5.80
2023-03-23T09:31:11.018Z,5.50
2023-03-23T09:35:12.877Z,5.20
2023-03-23T09:39:11.630Z,5.00
2023-03-23T09:43:22.620Z,4.70
2023-03-23T09:47:19.925Z,5.00
2023-03-23T09:51:18.754Z,5.20
2023-03-23T09:55:14.571Z,5.10
2023-03-23T09:59:16.888Z,5.70
2023-03-23T10:03:15.556Z,4.60
2023-03-23T10:07:13.679Z,4.30
2023-03-23T10:11:20.417Z,4.90
2023-03-23T10:15:16.153Z,4.70
2023-03-23T10:19:17.052Z,4.10
2023-03-23T10:23:15.666Z,4.40
2023-03-23T10:31:15.899Z,4.30
2023-03-23T10:35:15.612Z,4.20
2023-03-23T10:39:14.424Z,4.50
2023-03-23T10:43:11.140Z,4.50
2023-03-23T10:47:13.159Z,4.50
2023-03-23T10:51:13.731Z,4.80
2023-03-23T10:55:14.763Z,4.00
2023-03-23T10:59:14.086Z,4.20
2023-03-23T11:03:23.153Z,4.20
2023-03-23T11:07:19.716Z,5.60
2023-03-23T11:11:15.966Z,4.10
2023-03-23T11:15:23.339Z,5.00
2023-03-23T11:19:13.828Z,4.40
2023-03-23T11:23:20.023Z,4.50
2023-03-23T11:27:12.310Z,4.50
2023-03-23T11:35:17.591Z,5.30
2023-03-23T11:39:22.397Z,5.00
2023-03-23T11:43:15.051Z,5.00
2023-03-23T11:55:19.109Z,5.00
2023-03-23T11:59:14.910Z,5.00
2023-03-23T12:03:21.859Z,5.10
2023-03-23T12:07:26.651Z,5.40
2023-03-23T12:11:17.090Z,4.70
2023-03-23T12:15:22.495Z,4.50
2023-03-23T12:19:18.975Z,4.50
2023-03-23T12:23:21.727Z,4.80
2023-03-23T12:27:19.653Z,5.10
2023-03-23T12:31:18.175Z,5.50
2023-03-23T12:35:24.191Z,5.40
2023-03-23T12:39:30.904Z,5.90
2023-03-23T12:43:18.056Z,5.90
2023-03-23T12:51:21.628Z,5.40
2023-03-23T12:55:17.686Z,5.40
2023-03-23T12:59:17.676Z,6.30
2023-03-23T13:03:21.120Z,6.20
2023-03-23T13:07:17.993Z,6.20
2023-03-23T13:11:19.021Z,5.60
2023-03-23T13:15:23.753Z,6.10
2023-03-23T13:19:20.490Z,6.10
2023-03-23T13:23:15.577Z,5.00
2023-03-23T13:27:12.068Z,6.00
2023-03-23T13:31:13.831Z,5.20
2023-03-23T13:35:15.598Z,5.60
2023-03-23T13:39:19.509Z,5.30
2023-03-23T13:43:12.342Z,5.00
2023-03-23T13:47:26.688Z,5.30
2023-03-23T13:51:25.034Z,5.20
2023-03-23T13:55:29.618Z,5.40
2023-03-23T13:59:15.542Z,5.40
2023-03-23T14:03:14.594Z,6.10
2023-03-23T14:07:12.665Z,5.20
2023-03-23T14:11:15.269Z,5.80
2023-03-23T14:15:13.579Z,5.60
2023-03-23T14:19:17.497Z,5.50
2023-03-23T14:23:16.320Z,5.20
2023-03-23T14:27:14.785Z,5.20
2023-03-23T14:31:19.704Z,5.50
2023-03-23T14:35:16.881Z,5.10
2023-03-23T14:39:17.393Z,4.80
2023-03-23T14:47:17.190Z,5.70
2023-03-23T14:51:18.336Z,4.60
2023-03-23T14:55:13.074Z,5.60
2023-03-23T14:59:11.637Z,5.20
2023-03-23T15:03:17.938Z,5.60
2023-03-23T15:07:13.311Z,5.30
2023-03-23T15:11:20.664Z,5.20
2023-03-23T15:15:20.938Z,5.80
2023-03-23T15:19:17.382Z,5.90
2023-03-23T15:23:15.539Z,6.00
2023-03-23T15:27:14.411Z,6.10
2023-03-23T15:31:11.729Z,5.20
2023-03-23T15:35:14.871Z,5.40
2023-03-23T15:39:12.874Z,5.70
2023-03-23T15:43:19.492Z,5.40
2023-03-23T15:47:15.542Z,5.80
2023-03-23T15:51:12.997Z,4.90
2023-03-23T15:55:22.422Z,6.00
2023-03-23T15:59:11.962Z,5.40
2023-03-23T16:03:15.689Z,5.10
2023-03-23T16:07:13.175Z,5.70
2023-03-23T16:11:13.577Z,4.50
2023-03-23T16:15:12.660Z,5.70
2023-03-23T16:19:13.444Z,6.00
2023-03-23T16:27:12.516Z,6.20
2023-03-23T16:31:11.946Z,5.60
2023-03-23T16:35:12.608Z,5.80
2023-03-23T16:39:11.843Z,6.00
2023-03-23T16:43:12.663Z,5.70
2023-03-23T16:47:11.825Z,6.30
2023-03-23T16:51:12.014Z,6.30
2023-03-23T16:55:13.776Z,5.80
2023-03-23T16:59:12.231Z,5.40
2023-03-23T17:03:12.316Z,5.40
2023-03-23T17:07:13.342Z,5.60
2023-03-23T17:11:11.923Z,4.80
2023-03-23T17:15:12.176Z,5.10
2023-03-23T17:23:12.396Z,4.20
2023-03-23T17:31:12.194Z,3.90
2023-03-23T17:35:11.961Z,4.70
2023-03-23T17:39:12.124Z,4.00
2023-03-23T17:43:12.134Z,3.80
2023-03-23T17:47:12.479Z,3.70
2023-03-23T17:51:12.145Z,3.90
2023-03-23T17:55:12.175Z,3.70
2023-03-23T17:59:11.964Z,3.00
2023-03-23T18:03:12.591Z,2.90
2023-03-23T18:07:12.640Z,2.60
2023-03-23T18:11:12.410Z,2.40
2023-03-23T18:15:12.141Z,2.70
2023-03-23T18:19:12.294Z,2.90
2023-03-23T18:23:12.950Z,2.70
2023-03-23T18:27:12.648Z,2.70
2023-03-23T18:31:15.879Z,2.80
2023-03-23T18:35:12.320Z,3.00
2023-03-23T18:39:12.144Z,3.00
2023-03-23T18:43:12.835Z,2.70
2023-03-23T18:47:12.373Z,3.10
2023-03-23T18:51:12.412Z,2.60
2023-03-23T18:55:12.279Z,3.40
2023-03-23T18:59:12.341Z,2.90
2023-03-23T19:03:13.897Z,3.90
2023-03-23T19:07:14.006Z,4.10
2023-03-23T19:11:12.709Z,2.70
2023-03-23T19:15:12.870Z,3.00
2023-03-23T19:19:12.454Z,3.10
2023-03-23T19:23:12.240Z,2.60
2023-03-23T19:27:12.322Z,3.10
2023-03-23T19:31:14.586Z,3.00
2023-03-23T19:35:12.410Z,2.80
2023-03-23T19:39:12.542Z,2.80
2023-03-23T19:43:12.499Z,2.50
2023-03-23T19:47:13.296Z,2.70
2023-03-23T19:51:16.555Z,2.40
2023-03-23T19:55:12.552Z,2.40
2023-03-23T19:59:15.097Z,2.70
2023-03-23T20:03:13.296Z,2.50
2023-03-23T20:07:12.827Z,2.50
2023-03-23T20:11:16.291Z,3.10
2023-03-23T20:15:12.542Z,2.90
2023-03-23T20:19:12.405Z,3.10
2023-03-23T20:23:12.521Z,3.20
2023-03-23T20:31:20.944Z,3.70
2023-03-23T20:39:18.065Z,3.40
2023-03-23T20:43:12.900Z,3.60
2023-03-23T20:47:12.713Z,3.50
2023-03-23T20:55:14.285Z,3.10
2023-03-23T20:59:13.427Z,3.60
2023-03-23T21:03:13.014Z,2.40
2023-03-23T21:07:12.708Z,1.60
2023-03-23T21:11:16.790Z,1.30
2023-03-23T21:15:12.844Z,1.10
2023-03-23T21:19:13.067Z,1.20
2023-03-23T21:27:12.573Z,0.80
2023-03-23T21:31:14.087Z,1.00
2023-03-23T21:39:14.376Z,0.80
2023-03-23T21:43:12.732Z,1.00
2023-03-23T21:47:12.920Z,0.90
2023-03-23T21:51:14.149Z,1.00
2023-03-23T21:55:13.076Z,0.90
2023-03-23T21:59:12.650Z,0.90
2023-03-23T22:03:15.031Z,0.90
2023-03-23T22:07:13.386Z,1.10
2023-03-23T22:11:20.527Z,1.60
2023-03-23T22:15:14.094Z,1.10
2023-03-23T22:19:12.944Z,1.70
2023-03-23T22:23:12.862Z,1.20
2023-03-23T22:27:13.043Z,1.40
2023-03-23T22:31:16.504Z,1.60
2023-03-23T22:35:12.990Z,1.80
2023-03-23T22:39:12.767Z,1.70
2023-03-23T22:43:12.920Z,2.10
2023-03-23T22:47:12.835Z,2.10
2023-03-23T22:51:15.005Z,2.20
2023-03-23T22:55:13.737Z,2.10
2023-03-23T22:59:12.961Z,2.10
2023-03-23T23:03:13.037Z,2.80
2023-03-23T23:07:13.540Z,2.40
2023-03-23T23:11:16.326Z,2.50
2023-03-23T23:15:14.778Z,2.50
2023-03-23T23:19:13.731Z,3.00
2023-03-23T23:23:13.275Z,2.60
2023-03-23T23:27:13.731Z,2.30
2023-03-23T23:31:25.134Z,2.80
2023-03-23T23:35:13.116Z,2.70
2023-03-23T23:39:13.061Z,2.40
2023-03-23T23:47:13.394Z,2.70
2023-03-23T23:51:15.311Z,3.10
2023-03-23T23:55:14.910Z,3.30
2023-03-23T23:59:13.173Z,2.90
